Time;durP1;ratioP1;P1;durP2;ratioP2;P2;SDS_P1;SDS_P2;PMS_P1;PMS_P2;Temp;Humidity;BMP_temperature;BMP_pressure;BME280_temperature;BME280_humidity;BME280_pressure;Samples;Min_cycle;Max_cycle;Signal;HPM_P1;HPM_P2
2024/02/22 00:00:06;;;;;;;;;;;;;;;2.53;80.11;96918.31;7395907;19;1136;-68
2024/02/22 00:02:39;;;;;;;;;;;;;;;2.47;80.49;96911.41;7394497;19;1846;-66
2024/02/22 00:05:08;;;;;;;;;;;;;;;2.50;80.17;96911.41;7396122;19;950;-67
2024/02/22 00:07:36;;;;;;;;;;;;;;;2.50;79.83;96910.56;7395690;19;1045;-68
2024/02/22 00:10:07;;;;;;;;;;;;;;;2.50;79.11;96907.97;7396004;19;1857;-67
2024/02/22 00:12:38;;;;;;;;;;;;;;;2.47;78.47;96906.22;7403404;19;977;-70
2024/02/22 00:15:08;;;;;;;;;;;;;;;2.41;77.75;96906.25;7403017;19;1010;-69
2024/02/22 00:17:39;;;;;;;;;;;;;;;2.38;77.92;96904.50;7403291;19;1017;-67
2024/02/22 00:20:09;;;;;;;;;;;;;;;2.30;78.02;96908.81;7402884;19;940;-68
2024/02/22 00:22:37;;;;;;;;;;;;;;;2.12;78.06;96904.50;7401798;19;1847;-69
2024/02/22 00:25:06;;;;;;;;;;;;;;;1.99;78.37;96891.56;7403502;19;1663;-63
2024/02/22 00:27:36;;;;;;;;;;;;;;;1.92;78.51;96899.31;7402655;19;1013;-66
2024/02/22 00:30:05;;;;;;;;;;;;;;;1.82;78.95;96888.97;7402536;19;1111;-65
2024/02/22 00:32:34;;;;;;;;;;;;;;;1.81;78.96;96886.38;7402660;19;1819;-69
2024/02/22 00:35:06;;;;;;;;;;;;;;;1.64;78.72;96887.19;7402328;19;1064;-68
2024/02/22 00:37:35;;;;;;;;;;;;;;;1.56;78.68;96886.31;7402741;19;1047;-63
2024/02/22 00:40:04;;;;;;;;;;;;;;;1.51;79.72;96884.56;7401296;19;1258;-65
2024/02/22 00:42:32;;;;;;;;;;;;;;;1.47;81.72;96884.53;7400653;19;1945;-66
2024/02/22 00:45:01;;;;;;;;;;;;;;;1.50;81.58;96880.25;7402044;19;1138;-65
2024/02/22 00:47:29;;;;;;;;;;;;;;;1.50;81.14;96877.69;7402158;19;1914;-65
2024/02/22 00:49:58;;;;;;;;;;;;;;;1.38;81.31;96872.47;7401841;19;1056;-61
2024/02/22 00:52:29;;;;;;;;;;;;;;;1.35;81.09;96875.03;7401763;19;1072;-63
2024/02/22 00:54:57;;;;;;;;;;;;;;;1.31;80.15;96870.72;7401638;19;1033;-66
2024/02/22 00:57:25;;;;;;;;;;;;;;;1.29;79.98;96870.72;7401654;19;1208;-64
2024/02/22 00:59:54;;;;;;;;;;;;;;;1.28;79.83;96869.00;7401770;19;1841;-68
2024/02/22 01:02:26;;;;;;;;;;;;;;;1.23;78.97;96865.53;7400650;19;1849;-66
2024/02/22 01:04:54;;;;;;;;;;;;;;;1.22;78.37;96863.81;7401401;19;1122;-73
2024/02/22 01:07:23;;;;;;;;;;;;;;;1.21;78.72;96862.94;7401694;19;1060;-70
2024/02/22 01:09:54;;;;;;;;;;;;;;;1.15;78.78;96852.63;7401641;19;1024;-65
2024/02/22 01:12:22;;;;;;;;;;;;;;;1.07;78.71;96855.16;7401094;19;946;-68
2024/02/22 01:14:51;;;;;;;;;;;;;;;1.01;79.25;96852.56;7401809;19;1639;-70
2024/02/22 01:17:19;;;;;;;;;;;;;;;1.00;78.96;96850.84;7401255;19;1005;-65
2024/02/22 01:19:48;;;;;;;;;;;;;;;0.93;79.36;96849.09;7400748;19;1177;-68
2024/02/22 01:22:16;;;;;;;;;;;;;;;0.89;80.47;96845.63;7400102;19;1889;-72
2024/02/22 01:24:45;;;;;;;;;;;;;;;0.74;82.24;96854.13;7401129;19;1920;-67
2024/02/22 01:27:16;;;;;;;;;;;;;;;0.67;84.76;96845.53;7401076;19;1897;-68
2024/02/22 01:29:44;;;;;;;;;;;;;;;0.70;85.21;96847.25;7401126;19;1019;-68
2024/02/22 01:32:10;;;;;;;;;;;;;;;0.69;85.07;96843.78;7400976;19;1784;-67
2024/02/22 01:34:40;;;;;;;;;;;;;;;0.59;84.39;96842.00;7400335;19;1159;-67
2024/02/22 01:37:08;;;;;;;;;;;;;;;0.54;84.49;96841.13;7400788;19;961;-68
2024/02/22 01:39:37;;;;;;;;;;;;;;;0.53;83.83;96840.28;7399715;19;1056;-69
2024/02/22 01:42:05;;;;;;;;;;;;;;;0.45;84.14;96841.94;7399439;19;1849;-70
2024/02/22 01:44:36;;;;;;;;;;;;;;;0.33;85.79;96830.69;7400025;19;1072;-64
2024/02/22 01:47:05;;;;;;;;;;;;;;;0.33;87.29;96835.00;7399898;19;1263;-67
2024/02/22 01:49:33;;;;;;;;;;;;;;;0.30;88.66;96830.66;7399915;19;1084;-71
2024/02/22 01:52:03;;;;;;;;;;;;;;;0.40;88.88;96823.00;7400314;19;964;-71
2024/02/22 01:54:32;;;;;;;;;;;;;;;0.44;87.85;96829.91;7399998;19;1807;-70
2024/02/22 01:57:00;;;;;;;;;;;;;;;0.48;86.94;96834.25;7399629;19;1053;-67
2024/02/22 01:59:29;;;;;;;;;;;;;;;0.41;86.19;96824.72;7399508;19;1104;-68
2024/02/22 02:02:01;;;;;;;;;;;;;;;0.36;85.50;96830.72;7399431;19;1846;-70
2024/02/22 02:04:30;;;;;;;;;;;;;;;0.33;85.71;96825.53;7399402;19;1827;-68
2024/02/22 02:06:59;;;;;;;;;;;;;;;0.36;85.60;96819.56;7399324;19;1127;-66
2024/02/22 02:09:27;;;;;;;;;;;;;;;0.39;84.63;96823.88;7399268;19;1064;-65
2024/02/22 02:11:56;;;;;;;;;;;;;;;0.31;84.36;96819.53;7399388;19;1796;-67
2024/02/22 02:14:24;;;;;;;;;;;;;;;0.29;84.39;96816.06;7399096;19;1122;-71
2024/02/22 02:16:52;;;;;;;;;;;;;;;0.20;84.00;96819.44;7399432;19;953;-70
2024/02/22 02:19:26;;;;;;;;;;;;;;;0.15;84.97;96815.97;7399342;19;1000;-63
2024/02/22 02:22:00;;;;;;;;;;;;;;;0.08;86.71;96817.63;7398558;19;1841;-65
2024/02/22 02:24:31;;;;;;;;;;;;;;;0.01;85.67;96825.28;7398757;19;1025;-66
2024/02/22 02:27:03;;;;;;;;;;;;;;;-0.07;85.77;96812.34;7398663;19;1136;-69
2024/02/22 02:29:31;;;;;;;;;;;;;;;-0.20;86.51;96812.25;7398631;19;1060;-69
2024/02/22 02:32:00;;;;;;;;;;;;;;;-0.27;87.24;96813.91;7398130;19;1068;-70
2024/02/22 02:34:28;;;;;;;;;;;;;;;-0.26;87.39;96805.38;7397076;19;1151;-67
2024/02/22 02:36:56;;;;;;;;;;;;;;;-0.27;87.68;96813.91;7399120;19;1770;-69
2024/02/22 02:39:25;;;;;;;;;;;;;;;-0.37;87.11;96806.09;7397916;19;1203;-66
2024/02/22 02:41:54;;;;;;;;;;;;;;;-0.44;87.65;96807.75;7397992;19;1854;-70
2024/02/22 02:44:25;;;;;;;;;;;;;;;-0.44;88.39;96810.31;7398203;19;1017;-71
2024/02/22 02:46:53;;;;;;;;;;;;;;;-0.39;88.44;96803.53;7398033;19;954;-70
2024/02/22 02:49:22;;;;;;;;;;;;;;;-0.33;88.45;96806.13;7398486;19;1088;-70
2024/02/22 02:51:50;;;;;;;;;;;;;;;-0.30;87.21;96803.59;7397827;19;1069;-66
2024/02/22 02:54:18;;;;;;;;;;;;;;;-0.29;86.77;96807.03;7398098;19;1989;-63
2024/02/22 02:56:47;;;;;;;;;;;;;;;-0.40;86.83;96806.91;7397614;19;1144;-66
2024/02/22 02:59:16;;;;;;;;;;;;;;;-0.37;87.25;96801.81;7397595;19;1131;-69
2024/02/22 03:01:50;;;;;;;;;;;;;;;-0.41;87.51;96800.94;7397524;19;1025;-69
2024/02/22 03:04:19;;;;;;;;;;;;;;;-0.37;87.21;96806.09;7395778;19;1854;-70
2024/02/22 03:06:48;;;;;;;;;;;;;;;-0.39;87.47;96808.66;7397740;19;1043;-69
2024/02/22 03:09:16;;;;;;;;;;;;;;;-0.43;87.61;96809.47;7397329;19;1155;-70
2024/02/22 03:11:45;;;;;;;;;;;;;;;-0.47;87.46;96806.00;7397264;19;878;-69
2024/02/22 03:14:15;;;;;;;;;;;;;;;-0.46;87.43;96804.28;7397228;19;1872;-69
2024/02/22 03:16:43;;;;;;;;;;;;;;;-0.48;87.44;96811.97;7397109;19;1084;-67
2024/02/22 03:19:14;;;;;;;;;;;;;;;-0.47;87.39;96816.28;7397330;19;1900;-67
2024/02/22 03:21:43;;;;;;;;;;;;;;;-0.44;87.41;96818.91;7396902;19;1131;-70
2024/02/22 03:24:11;;;;;;;;;;;;;;;-0.39;86.63;96821.53;7395645;19;1884;-70
2024/02/22 03:26:39;;;;;;;;;;;;;;;-0.42;86.65;96818.91;7397244;19;965;-64
2024/02/22 03:29:08;;;;;;;;;;;;;;;-0.41;86.36;96820.63;7397184;19;973;-71
2024/02/22 03:31:37;;;;;;;;;;;;;;;-0.42;85.90;96817.19;7396632;19;1050;-67
2024/02/22 03:34:05;;;;;;;;;;;;;;;-0.42;85.25;96813.78;7397028;19;992;-67
2024/02/22 03:36:36;;;;;;;;;;;;;;;-0.53;84.96;96811.97;7396709;19;1833;-69
2024/02/22 03:39:05;;;;;;;;;;;;;;;-0.60;85.45;96811.88;7396516;19;1251;-64
2024/02/22 03:41:34;;;;;;;;;;;;;;;-0.66;85.64;96804.97;7394852;19;1927;-68
2024/02/22 03:44:02;;;;;;;;;;;;;;;-0.70;86.83;96798.03;7394829;19;1841;-67
2024/02/22 03:46:31;;;;;;;;;;;;;;;-0.73;87.58;96798.88;7400647;19;1680;-64
2024/02/22 03:48:59;;;;;;;;;;;;;;;-0.75;88.03;96797.16;7404435;19;1063;-66
2024/02/22 03:51:28;;;;;;;;;;;;;;;-0.75;88.49;96803.16;7404121;19;1903;-71
2024/02/22 03:54:00;;;;;;;;;;;;;;;-0.81;88.52;96800.50;7403795;19;1005;-66
2024/02/22 03:56:28;;;;;;;;;;;;;;;-0.83;88.57;96799.63;7403667;19;1026;-70
2024/02/22 03:58:56;;;;;;;;;;;;;;;-0.85;88.87;96802.16;7403987;19;1919;-71
2024/02/22 04:01:25;;;;;;;;;;;;;;;-0.83;88.52;96800.50;7403661;19;2002;-63
2024/02/22 04:03:54;;;;;;;;;;;;;;;-0.84;88.65;96801.31;7401772;19;1850;-62
2024/02/22 04:06:22;;;;;;;;;;;;;;;-0.87;88.73;96792.72;7403796;19;1086;-67
2024/02/22 04:08:51;;;;;;;;;;;;;;;-0.86;89.35;96794.44;7403531;19;1794;-69
2024/02/22 04:11:23;;;;;;;;;;;;;;;-0.80;89.28;96797.97;7403582;19;947;-70
2024/02/22 04:13:51;;;;;;;;;;;;;;;-0.73;88.20;96800.59;7403517;19;965;-72
2024/02/22 04:16:20;;;;;;;;;;;;;;;-0.74;88.41;96798.84;7403221;19;1916;-69
2024/02/22 04:18:48;;;;;;;;;;;;;;;-0.71;88.09;96796.31;7403014;19;1861;-69
2024/02/22 04:21:16;;;;;;;;;;;;;;;-0.66;87.83;96792.94;7402800;19;977;-68
2024/02/22 04:23:45;;;;;;;;;;;;;;;-0.60;87.79;96801.59;7401637;19;1887;-67
2024/02/22 04:26:13;;;;;;;;;;;;;;;-0.61;87.27;96797.31;7402998;19;1919;-69
2024/02/22 04:28:44;;;;;;;;;;;;;;;-0.60;86.92;96794.72;7402720;19;1139;-70
2024/02/22 04:31:13;;;;;;;;;;;;;;;-0.58;85.96;96802.44;7402486;19;1388;-70
2024/02/22 04:33:42;;;;;;;;;;;;;;;-0.61;85.73;96794.72;7403290;19;1657;-69
2024/02/22 04:36:11;;;;;;;;;;;;;;;-0.60;85.17;96799.84;7402348;19;898;-68
2024/02/22 04:38:40;;;;;;;;;;;;;;;-0.61;85.58;96795.56;7402799;19;957;-68
2024/02/22 04:41:08;;;;;;;;;;;;;;;-0.59;85.17;96790.44;7398346;19;1105;-65
2024/02/22 04:43:37;;;;;;;;;;;;;;;-0.64;85.07;96792.97;7398732;19;1927;-64
2024/02/22 04:46:08;;;;;;;;;;;;;;;-0.74;84.98;96786.88;7399846;19;1746;-65
2024/02/22 04:48:36;;;;;;;;;;;;;;;-0.80;86.52;96791.94;7399559;19;1065;-70
2024/02/22 04:51:05;;;;;;;;;;;;;;;-0.80;86.30;96787.69;7399762;19;1818;-68
2024/02/22 04:53:33;;;;;;;;;;;;;;;-0.82;86.58;96786.78;7399413;19;1041;-71
2024/02/22 04:56:03;;;;;;;;;;;;;;;-0.83;87.04;96789.34;7399322;19;1935;-70
2024/02/22 04:58:32;;;;;;;;;;;;;;;-0.83;86.69;96797.94;7399031;19;1048;-67
2024/02/22 05:01:00;;;;;;;;;;;;;;;-0.91;86.53;96791.81;7399496;19;965;-74
2024/02/22 05:03:32;;;;;;;;;;;;;;;-0.92;87.06;96806.38;7398474;19;1935;-66
2024/02/22 05:06:00;;;;;;;;;;;;;;;-0.92;87.06;96793.53;7398859;19;1116;-67
2024/02/22 05:08:29;;;;;;;;;;;;;;;-0.89;87.06;96795.28;7398855;19;1104;-68
2024/02/22 05:10:57;;;;;;;;;;;;;;;-0.95;86.64;96802.91;7399168;19;1025;-66
2024/02/22 05:13:25;;;;;;;;;;;;;;;-0.97;86.26;96807.19;7399609;19;1654;-65
2024/02/22 05:15:54;;;;;;;;;;;;;;;-0.94;86.05;96802.94;7399060;19;1929;-71
2024/02/22 05:18:23;;;;;;;;;;;;;;;-0.96;86.21;96807.16;7399012;19;1813;-69
2024/02/22 05:20:54;;;;;;;;;;;;;;;-1.03;86.49;96807.94;7398687;19;1033;-69
2024/02/22 05:23:22;;;;;;;;;;;;;;;-1.00;87.13;96820.84;7398465;19;1825;-71
2024/02/22 05:25:51;;;;;;;;;;;;;;;-0.97;86.65;96813.16;7398335;19;1128;-72
2024/02/22 05:28:19;;;;;;;;;;;;;;;-0.95;86.64;96810.63;7398650;19;2004;-66
2024/02/22 05:30:49;;;;;;;;;;;;;;;-0.97;86.67;96815.72;7398551;19;1812;-65
2024/02/22 05:33:17;;;;;;;;;;;;;;;-0.92;86.50;96818.34;7398244;19;1018;-71
2024/02/22 05:35:46;;;;;;;;;;;;;;;-0.88;86.54;96817.53;7398563;19;961;-63
2024/02/22 05:38:17;;;;;;;;;;;;;;;-0.81;86.88;96824.47;7398173;19;1088;-68
2024/02/22 05:40:45;;;;;;;;;;;;;;;-0.81;86.99;96818.50;7246582;19;2971043;-69
2024/02/22 05:43:14;;;;;;;;;;;;;;;-0.79;87.26;96822.81;7399689;19;1848;-67
2024/02/22 05:45:45;;;;;;;;;;;;;;;-0.71;87.90;96832.31;7399996;19;1126;-66
2024/02/22 05:48:13;;;;;;;;;;;;;;;0.12;89.03;96826.25;7399901;19;1275;-70
2024/02/22 05:50:42;;;;;;;;;;;;;;;1.45;85.09;96829.53;7400102;19;1972;-70
2024/02/22 05:53:12;;;;;;;;;;;;;;;2.77;75.51;96842.47;7399785;19;1210;-63
2024/02/22 05:55:44;;;;;;;;;;;;;;;4.08;70.40;96833.25;7400045;19;1068;-66
2024/02/22 05:58:13;;;;;;;;;;;;;;;5.31;62.73;96852.84;7399659;19;1102;-64
2024/02/22 06:00:41;;;;;;;;;;;;;;;6.43;60.88;96844.38;7399569;19;1116;-70
2024/02/22 06:03:10;;;;;;;;;;;;;;;7.51;58.26;96850.19;7399341;19;1845;-73
2024/02/22 06:05:39;;;;;;;;;;;;;;;8.64;54.60;96833.75;7399270;19;1052;-68
2024/02/22 06:08:08;;;;;;;;;;;;;;;9.67;50.32;96830.97;7397857;19;1922;-66
2024/02/22 06:10:36;;;;;;;;;;;;;;;10.59;46.03;96835.09;7399310;19;1902;-71
2024/02/22 06:13:07;;;;;;;;;;;;;;;11.28;44.24;96835.38;7399370;19;1810;-71
2024/02/22 06:15:36;;;;;;;;;;;;;;;11.87;43.39;96841.91;7398929;19;969;-70
2024/02/22 06:18:04;;;;;;;;;;;;;;;12.51;41.77;96841.22;7399516;19;1017;-65
2024/02/22 06:20:33;;;;;;;;;;;;;;;13.15;41.50;96838.56;7399574;19;1662;-68
2024/02/22 06:23:03;;;;;;;;;;;;;;;13.90;40.94;96844.00;7398835;19;1025;-69
2024/02/22 06:25:32;;;;;;;;;;;;;;;14.84;39.07;96844.81;7396764;19;1862;-66
2024/02/22 06:28:00;;;;;;;;;;;;;;;15.57;36.60;96845.50;7399072;19;1031;-71
2024/02/22 06:30:31;;;;;;;;;;;;;;;16.12;36.37;96843.44;7398929;19;1057;-66
2024/02/22 06:33:00;;;;;;;;;;;;;;;16.68;35.87;96850.03;7398443;19;1060;-71
2024/02/22 06:35:28;;;;;;;;;;;;;;;17.10;35.00;96850.25;7398797;19;1043;-64
2024/02/22 06:37:56;;;;;;;;;;;;;;;17.65;33.37;96854.91;7398622;19;1927;-70
2024/02/22 06:40:25;;;;;;;;;;;;;;;17.74;33.15;96864.94;7397050;19;1368;-70
2024/02/22 06:42:53;;;;;;;;;;;;;;;18.27;32.12;96860.81;7398140;19;1065;-66
2024/02/22 06:45:23;;;;;;;;;;;;;;;18.88;31.14;96862.19;7396433;19;1862;-70
2024/02/22 06:47:54;;;;;;;;;;;;;;;19.32;30.84;96862.81;7397986;19;962;-65
2024/02/22 06:50:23;;;;;;;;;;;;;;;19.69;30.83;96873.50;7397882;19;1041;-71
2024/02/22 06:52:51;;;;;;;;;;;;;;;19.86;30.46;96860.88;7398422;19;1039;-68
2024/02/22 06:55:24;;;;;;;;;;;;;;;20.12;30.46;96860.00;7397904;19;1859;-66
2024/02/22 06:57:53;;;;;;;;;;;;;;;20.58;29.63;96855.78;7397682;19;875;-70
2024/02/22 07:00:22;;;;;;;;;;;;;;;21.02;29.19;96868.56;7397952;19;964;-70
2024/02/22 07:02:50;;;;;;;;;;;;;;;21.56;28.53;96863.59;7397618;19;1038;-69
2024/02/22 07:05:21;;;;;;;;;;;;;;;21.45;28.64;96864.41;7396562;19;1850;-70
2024/02/22 07:07:50;;;;;;;;;;;;;;;21.99;28.29;96859.38;7398062;19;1112;-71
2024/02/22 07:10:18;;;;;;;;;;;;;;;22.32;27.80;96857.66;7397617;19;1805;-75
2024/02/22 07:12:47;;;;;;;;;;;;;;;22.50;27.81;96864.25;7397841;19;1013;-65
2024/02/22 07:15:16;;;;;;;;;;;;;;;22.43;27.53;96864.75;7397652;19;961;-68
2024/02/22 07:17:44;;;;;;;;;;;;;;;22.71;27.65;96872.34;7397690;19;1031;-69
2024/02/22 07:20:14;;;;;;;;;;;;;;;22.90;26.77;96868.16;7397025;19;1039;-71
2024/02/22 07:22:47;;;;;;;;;;;;;;;22.66;27.50;96864.72;7396955;19;1130;-72
2024/02/22 07:25:18;;;;;;;;;;;;;;;22.63;27.77;96858.81;7395960;19;1851;-69
2024/02/22 07:27:47;;;;;;;;;;;;;;;22.68;28.03;96857.44;7397314;19;1063;-68
2024/02/22 07:30:16;;;;;;;;;;;;;;;23.14;27.44;96857.22;7397129;19;1059;-66
2024/02/22 07:32:45;;;;;;;;;;;;;;;23.88;26.29;96862.56;7397009;19;1914;-66
2024/02/22 07:35:13;;;;;;;;;;;;;;;24.61;25.04;96852.63;7397044;19;1071;-74
2024/02/22 07:37:42;;;;;;;;;;;;;;;25.06;24.75;96853.94;7397406;19;1696;-66
2024/02/22 07:40:13;;;;;;;;;;;;;;;25.63;24.03;96854.97;7395871;19;2046;-65
2024/02/22 07:42:42;;;;;;;;;;;;;;;25.74;23.56;96854.78;7396425;19;1136;-66
2024/02/22 07:45:11;;;;;;;;;;;;;;;25.65;23.93;96852.16;7394920;19;1849;-63
2024/02/22 07:47:40;;;;;;;;;;;;;;;25.83;23.99;96849.56;7396742;19;988;-70
2024/02/22 07:50:10;;;;;;;;;;;;;;;25.56;24.10;96854.69;7396657;19;1142;-71
2024/02/22 07:52:39;;;;;;;;;;;;;;;25.34;24.49;96855.84;7396214;19;1088;-68
2024/02/22 07:55:08;;;;;;;;;;;;;;;25.55;23.92;96850.31;7396378;19;1800;-67
2024/02/22 07:57:39;;;;;;;;;;;;;;;24.13;25.40;96848.84;7396065;19;1876;-70
2024/02/22 08:00:09;;;;;;;;;;;;;;;23.29;26.57;96854.22;7396411;19;972;-68
2024/02/22 08:02:38;;;;;;;;;;;;;;;23.00;27.22;96849.56;7396175;19;1923;-75
2024/02/22 08:05:09;;;;;;;;;;;;;;;22.48;27.94;96845.72;7395044;19;1845;-69
2024/02/22 08:07:37;;;;;;;;;;;;;;;20.67;30.26;96847.13;7395848;19;1036;-70
2024/02/22 08:10:06;;;;;;;;;;;;;;;19.69;32.10;96846.97;7395729;19;982;-68
2024/02/22 08:12:34;;;;;;;;;;;;;;;19.57;32.08;96834.59;7396185;19;1051;-72
2024/02/22 08:15:07;;;;;;;;;;;;;;;18.93;33.73;96834.44;7395517;19;1881;-70
2024/02/22 08:17:38;;;;;;;;;;;;;;;18.51;34.28;96833.72;7395619;19;1057;-67
2024/02/22 08:20:07;;;;;;;;;;;;;;;17.52;36.67;96829.22;7395944;19;1056;-69
2024/02/22 08:22:36;;;;;;;;;;;;;;;17.20;36.74;96832.06;7395683;19;1811;-64
2024/02/22 08:25:04;;;;;;;;;;;;;;;16.51;37.95;96829.88;7394158;19;1838;-66
2024/02/22 08:27:32;;;;;;;;;;;;;;;16.16;38.23;96825.63;7395723;19;1063;-69
2024/02/22 08:30:01;;;;;;;;;;;;;;;16.07;37.95;96819.09;7395481;19;1815;-68
2024/02/22 08:32:32;;;;;;;;;;;;;;;15.84;38.62;96818.56;7399171;19;1044;-66
2024/02/22 08:35:01;;;;;;;;;;;;;;;15.55;39.61;96818.34;7402541;19;1116;-70
2024/02/22 08:37:29;;;;;;;;;;;;;;;15.75;39.08;96825.19;7403067;19;992;-72
2024/02/22 08:39:58;;;;;;;;;;;;;;;15.83;39.97;96821.28;7401855;19;1109;-68
2024/02/22 08:42:26;;;;;;;;;;;;;;;15.28;40.87;96824.16;7402811;19;1008;-71
2024/02/22 08:44:55;;;;;;;;;;;;;;;14.94;40.32;96812.75;7400876;19;1858;-70
2024/02/22 08:47:23;;;;;;;;;;;;;;;14.71;41.23;96812.97;7402411;19;1865;-65
2024/02/22 08:49:54;;;;;;;;;;;;;;;13.82;42.60;96814.56;7402288;19;1861;-71
2024/02/22 08:52:22;;;;;;;;;;;;;;;13.98;41.99;96816.50;7402400;19;1024;-69
2024/02/22 08:54:51;;;;;;;;;;;;;;;13.72;43.69;96815.94;7401840;19;1107;-67
2024/02/22 08:57:20;;;;;;;;;;;;;;;13.59;45.02;96810.38;7401829;19;1108;-69
2024/02/22 08:59:49;;;;;;;;;;;;;;;13.71;44.16;96812.47;7401762;19;938;-67
2024/02/22 09:02:17;;;;;;;;;;;;;;;13.56;43.68;96821.91;7401639;19;1005;-69
2024/02/22 09:04:46;;;;;;;;;;;;;;;13.49;44.11;96816.06;7401041;19;1912;-63
2024/02/22 09:07:17;;;;;;;;;;;;;;;13.61;45.89;96817.28;7401864;19;961;-73
2024/02/22 09:09:46;;;;;;;;;;;;;;;13.31;44.27;96820.38;7401379;19;1029;-69
2024/02/22 09:12:15;;;;;;;;;;;;;;;13.34;45.06;96819.38;7401074;19;1045;-68
2024/02/22 09:14:43;;;;;;;;;;;;;;;13.12;43.73;96828.19;7401034;19;1132;-74
2024/02/22 09:17:12;;;;;;;;;;;;;;;12.95;43.80;96818.44;7401084;19;938;-70
2024/02/22 09:19:42;;;;;;;;;;;;;;;13.02;44.16;96818.09;7401728;19;1611;-68
2024/02/22 09:22:12;;;;;;;;;;;;;;;12.91;43.49;96820.31;7400945;19;1108;-71
2024/02/22 09:24:46;;;;;;;;;;;;;;;12.71;43.99;96823.81;7400222;19;1858;-69
2024/02/22 09:27:15;;;;;;;;;;;;;;;12.61;45.35;96816.31;7400790;19;1083;-64
2024/02/22 09:29:45;;;;;;;;;;;;;;;12.64;45.29;96813.56;7400583;19;1009;-68
2024/02/22 09:32:14;;;;;;;;;;;;;;;13.01;45.28;96807.66;7400593;19;1009;-66
2024/02/22 09:34:42;;;;;;;;;;;;;;;13.22;43.75;96807.63;7400406;19;1080;-69
2024/02/22 09:37:11;;;;;;;;;;;;;;;13.08;43.66;96803.84;7400319;19;1013;-76
2024/02/22 09:39:39;;;;;;;;;;;;;;;12.93;43.26;96800.09;7400316;19;1666;-66
2024/02/22 09:42:11;;;;;;;;;;;;;;;13.06;44.40;96799.59;7400325;19;1131;-70
2024/02/22 09:44:40;;;;;;;;;;;;;;;13.33;44.97;96794.84;7397477;19;1857;-68
2024/02/22 09:47:11;;;;;;;;;;;;;;;13.60;43.79;96784.03;7400057;19;1143;-69
2024/02/22 09:49:42;;;;;;;;;;;;;;;13.98;43.01;96779.69;7399997;19;1128;-73
2024/02/22 09:52:11;;;;;;;;;;;;;;;14.22;42.00;96774.16;7400487;19;1047;-66
2024/02/22 09:54:40;;;;;;;;;;;;;;;14.20;40.89;96773.34;7399742;19;1025;-68
2024/02/22 09:57:11;;;;;;;;;;;;;;;14.22;41.64;96769.75;7399838;19;1124;-69
2024/02/22 09:59:39;;;;;;;;;;;;;;;14.10;41.26;96765.94;7399700;19;1057;-69
2024/02/22 10:02:08;;;;;;;;;;;;;;;14.26;41.80;96765.16;7400073;19;1819;-64
2024/02/22 10:04:37;;;;;;;;;;;;;;;14.26;40.17;96759.91;7399327;19;1853;-72
2024/02/22 10:07:07;;;;;;;;;;;;;;;14.23;42.18;96746.91;7400039;19;1846;-70
2024/02/22 10:09:44;;;;;;;;;;;;;;;14.42;40.31;96748.63;7399957;19;1017;-66
2024/02/22 10:12:23;;;;;;;;;;;;;;;14.22;38.42;96751.34;7399660;19;1047;-70
2024/02/22 10:14:52;;;;;;;;;;;;;;;14.16;39.96;96746.38;7399068;19;1048;-67
2024/02/22 10:17:23;;;;;;;;;;;;;;;14.18;40.14;96738.41;7398997;19;1092;-68
2024/02/22 10:20:06;;;;;;;;;;;;;;;14.28;39.13;96727.34;7399169;19;1800;-70
2024/02/22 10:22:35;;;;;;;;;;;;;;;14.00;38.91;96730.50;7399296;19;1047;-64
2024/02/22 10:25:11;;;;;;;;;;;;;;;13.75;40.59;96727.28;7398264;19;1853;-66
2024/02/22 10:27:45;;;;;;;;;;;;;;;13.74;39.56;96719.44;7399312;19;1051;-70
2024/02/22 10:30:15;;;;;;;;;;;;;;;13.72;39.20;96724.78;7399078;19;1141;-65
2024/02/22 10:32:45;;;;;;;;;;;;;;;13.57;39.31;96715.84;7398644;19;1848;-73
2024/02/22 10:35:15;;;;;;;;;;;;;;;13.74;39.13;96716.81;7398457;19;1124;-68
2024/02/22 10:37:43;;;;;;;;;;;;;;;13.81;40.46;96702.44;7398470;19;1044;-73
2024/02/22 10:40:12;;;;;;;;;;;;;;;13.75;40.33;96694.84;7397608;19;1158;-68
2024/02/22 10:42:43;;;;;;;;;;;;;;;13.39;41.44;96694.75;7398919;19;1078;-74
2024/02/22 10:45:12;;;;;;;;;;;;;;;13.23;39.42;96694.63;7398137;19;1837;-74
2024/02/22 10:47:41;;;;;;;;;;;;;;;13.04;39.39;96696.38;7398555;19;1826;-71
2024/02/22 10:50:10;;;;;;;;;;;;;;;13.01;39.78;96684.25;7398083;19;1112;-70
2024/02/22 10:52:42;;;;;;;;;;;;;;;13.10;38.18;96681.19;7398017;19;1029;-71
2024/02/22 10:55:14;;;;;;;;;;;;;;;13.13;38.68;96686.28;7396996;19;1084;-72
2024/02/22 10:57:46;;;;;;;;;;;;;;;12.96;39.74;96675.72;7397887;19;1041;-71
2024/02/22 11:00:16;;;;;;;;;;;;;;;12.92;40.71;96676.78;7397763;19;1036;-69
2024/02/22 11:02:45;;;;;;;;;;;;;;;12.98;39.77;96671.25;7397798;19;1946;-68
2024/02/22 11:05:14;;;;;;;;;;;;;;;12.77;40.23;96663.44;7397555;19;2037;-64
2024/02/22 11:07:46;;;;;;;;;;;;;;;12.64;40.97;96661.34;7397994;19;1833;-67
2024/02/22 11:10:15;;;;;;;;;;;;;;;12.64;41.97;96658.72;7397961;19;954;-69
2024/02/22 11:12:49;;;;;;;;;;;;;;;12.62;42.87;96659.72;7397832;19;1915;-70
2024/02/22 11:15:17;;;;;;;;;;;;;;;12.38;42.85;96652.84;7397288;19;938;-65
2024/02/22 11:17:53;;;;;;;;;;;;;;;12.26;42.93;96661.25;7397829;19;966;-67
2024/02/22 11:20:31;;;;;;;;;;;;;;;12.16;43.47;96652.91;7397107;19;1259;-65
2024/02/22 11:23:00;;;;;;;;;;;;;;;12.42;41.83;96643.06;7397134;19;1139;-72
2024/02/22 11:25:28;;;;;;;;;;;;;;;12.55;41.00;96640.75;7396996;19;1871;-73
2024/02/22 11:28:02;;;;;;;;;;;;;;;12.57;37.25;96638.94;7397014;19;1041;-74
2024/02/22 11:30:31;;;;;;;;;;;;;;;12.45;39.48;96647.31;7396807;19;1431;-74
2024/02/22 11:33:00;;;;;;;;;;;;;;;12.30;41.77;96644.47;7397364;19;1020;-73
2024/02/22 11:35:29;;;;;;;;;;;;;;;12.30;42.72;96638.34;7397135;19;1820;-71
2024/02/22 11:38:02;;;;;;;;;;;;;;;12.32;42.60;96636.53;7397122;19;1821;-70
2024/02/22 11:40:34;;;;;;;;;;;;;;;12.37;41.69;96630.16;7395651;19;1049;-64
2024/02/22 11:43:05;;;;;;;;;;;;;;;12.43;41.16;96628.19;7396613;19;1076;-71
2024/02/22 11:45:34;;;;;;;;;;;;;;;12.68;42.71;96621.84;7395990;19;1831;-70
2024/02/22 11:48:03;;;;;;;;;;;;;;;12.80;41.80;96621.31;7396854;19;945;-68
2024/02/22 11:50:32;;;;;;;;;;;;;;;12.91;41.94;96618.16;7396789;19;1067;-74
2024/02/22 11:53:02;;;;;;;;;;;;;;;12.61;41.58;96619.50;7396415;19;1014;-67
2024/02/22 11:55:32;;;;;;;;;;;;;;;12.48;39.76;96620.97;7396255;19;1104;-75
2024/02/22 11:58:00;;;;;;;;;;;;;;;12.24;39.35;96619.38;7396224;19;1024;-68
2024/02/22 12:00:31;;;;;;;;;;;;;;;12.18;41.13;96611.75;7396086;19;1072;-72
2024/02/22 12:03:00;;;;;;;;;;;;;;;12.35;42.45;96612.78;7396601;19;949;-66
2024/02/22 12:05:29;;;;;;;;;;;;;;;12.25;41.63;96604.47;7395579;19;1837;-67
2024/02/22 12:07:58;;;;;;;;;;;;;;;12.21;41.78;96611.63;7401761;19;1902;-69
2024/02/22 12:10:26;;;;;;;;;;;;;;;12.24;41.71;96597.53;7403710;19;1766;-70
2024/02/22 12:16:06;;;;;;;;;;;;;;;12.33;42.25;96589.25;7403294;19;832;-71
2024/02/22 12:18:35;;;;;;;;;;;;;;;12.28;42.74;96588.59;7403617;19;1064;-70
2024/02/22 12:21:03;;;;;;;;;;;;;;;12.32;42.63;96579.69;7403019;19;1021;-66
2024/02/22 12:23:32;;;;;;;;;;;;;;;12.33;42.52;96583.16;7403532;19;1771;-76
2024/02/22 12:26:06;;;;;;;;;;;;;;;12.33;42.52;96583.16;7402324;19;1838;-75
2024/02/22 12:28:35;;;;;;;;;;;;;;;12.18;42.17;96572.41;7402829;19;1041;-66
2024/02/22 12:31:07;;;;;;;;;;;;;;;12.15;41.63;96567.31;7403123;19;2057;-65
2024/02/22 12:33:36;;;;;;;;;;;;;;;12.26;42.69;96564.22;7403187;19;1028;-74
2024/02/22 12:36:05;;;;;;;;;;;;;;;12.32;42.73;96563.09;7403116;19;1032;-67
2024/02/22 12:38:34;;;;;;;;;;;;;;;12.44;42.26;96562.56;7403005;19;1050;-66
2024/02/22 12:41:03;;;;;;;;;;;;;;;12.61;42.73;96558.28;7400216;19;1113;-69
2024/02/22 12:43:31;;;;;;;;;;;;;;;12.68;40.92;96556.25;7402364;19;1163;-72
2024/02/22 12:46:00;;;;;;;;;;;;;;;12.69;40.97;96548.28;7401295;19;1862;-70
2024/02/22 12:48:31;;;;;;;;;;;;;;;12.61;41.24;96553.03;7402191;19;1850;-73
2024/02/22 12:51:00;;;;;;;;;;;;;;;12.66;41.19;96551.06;7401999;19;1060;-74
2024/02/22 12:53:28;;;;;;;;;;;;;;;12.46;40.36;96547.56;7402395;19;1032;-66
2024/02/22 12:55:58;;;;;;;;;;;;;;;12.35;39.78;96542.84;7402539;19;1064;-71
2024/02/22 12:58:26;;;;;;;;;;;;;;;12.23;40.30;96543.38;7402394;19;1040;-70
2024/02/22 13:01:24;;;;;;;;;;;;;;;12.34;40.04;96538.47;7402181;19;1815;-65
2024/02/22 13:03:57;;;;;;;;;;;;;;;12.45;39.03;96537.16;7401666;19;1029;-69
2024/02/22 13:06:25;;;;;;;;;;;;;;;12.29;39.89;96521.25;7400454;19;1853;-71
2024/02/22 13:08:54;;;;;;;;;;;;;;;12.40;39.89;96524.25;7401565;19;1096;-69
2024/02/22 13:11:23;;;;;;;;;;;;;;;12.54;37.63;96518.38;7401437;19;1952;-71
2024/02/22 13:13:51;;;;;;;;;;;;;;;12.66;37.94;96518.72;7401833;19;1039;-70